createdAt,value
2018-04-23T00:00:21.314Z,98380
2018-04-23T00:02:53.813Z,98389
2018-04-23T00:05:26.053Z,98388
2018-04-23T00:07:58.834Z,98391
2018-04-23T00:10:31.114Z,98383
2018-04-23T00:13:03.354Z,98383
2018-04-23T00:15:36.074Z,98389
2018-04-23T00:18:08.334Z,98378
2018-04-23T00:20:40.573Z,98382
2018-04-23T00:23:12.775Z,98372
2018-04-23T00:25:45.036Z,98381
2018-04-23T00:28:17.198Z,98371
2018-04-23T00:30:49.414Z,98376
2018-04-23T00:33:21.554Z,98373
2018-04-23T00:35:54.513Z,98378
2018-04-23T00:38:27.494Z,98376
2018-04-23T00:40:59.717Z,98371
2018-04-23T00:43:31.833Z,98383
2018-04-23T00:46:04.354Z,98383
2018-04-23T00:48:36.644Z,98379
2018-04-23T00:51:08.861Z,98382
2018-04-23T00:53:40.987Z,98385
2018-04-23T00:56:13.259Z,98383
2018-04-23T00:58:45.441Z,98383
2018-04-23T01:01:17.734Z,98379
2018-04-23T01:03:49.934Z,98382
2018-04-23T01:06:22.134Z,98388
2018-04-23T01:08:54.394Z,98386
2018-04-23T01:11:26.613Z,98386
2018-04-23T01:13:58.836Z,98383
2018-04-23T01:16:31.034Z,98381
2018-04-23T01:19:03.253Z,98373
2018-04-23T01:21:35.414Z,98378
2018-04-23T01:24:07.655Z,98380
2018-04-23T01:26:39.874Z,98374
2018-04-23T01:29:12.193Z,98379
2018-04-23T01:31:44.414Z,98388
2018-04-23T01:34:16.656Z,98387
2018-04-23T01:36:50.174Z,98386
2018-04-23T01:39:22.333Z,98389
2018-04-23T01:41:54.483Z,98383
2018-04-23T01:44:26.703Z,98383
2018-04-23T01:46:58.885Z,98385
2018-04-23T01:49:31.984Z,98384
2018-04-23T01:52:04.184Z,98383
2018-04-23T01:54:36.464Z,98391
2018-04-23T01:57:08.643Z,98390
2018-04-23T01:59:40.844Z,98393
2018-04-23T02:02:13.084Z,98401
2018-04-23T02:04:46.044Z,98395
2018-04-23T02:07:18.223Z,98397
2018-04-23T02:09:50.466Z,98401
2018-04-23T02:12:22.745Z,98400
2018-04-23T02:14:55.723Z,98400
2018-04-23T02:17:27.984Z,98414
2018-04-23T02:20:00.183Z,98411
2018-04-23T02:22:32.303Z,98412
2018-04-23T02:25:04.624Z,98407
2018-04-23T02:27:36.925Z,98402
2018-04-23T02:30:09.192Z,98399
2018-04-23T02:32:41.344Z,98393
2018-04-23T02:35:13.464Z,98392
2018-04-23T02:37:45.611Z,98398
2018-04-23T02:40:17.826Z,98398
2018-04-23T02:42:49.964Z,98398
2018-04-23T02:45:22.245Z,98407
2018-04-23T02:47:54.405Z,98404
2018-04-23T02:50:26.624Z,98409
2018-04-23T02:52:59.171Z,98411
2018-04-23T02:55:31.465Z,98415
2018-04-23T02:58:04.390Z,98406
2018-04-23T03:00:36.616Z,98404
2018-04-23T03:03:08.785Z,98404
2018-04-23T03:05:41.668Z,98407
2018-04-23T03:08:13.823Z,98406
2018-04-23T03:10:46.004Z,98416
2018-04-23T03:13:18.183Z,98415
2018-04-23T03:15:50.304Z,98424
2018-04-23T03:18:22.785Z,98430
2018-04-23T03:20:54.923Z,98423
2018-04-23T03:23:27.184Z,98427
2018-04-23T03:25:59.263Z,98427
2018-04-23T03:28:31.516Z,98426
2018-04-23T03:31:03.643Z,98414
2018-04-23T03:33:35.884Z,98409
2018-04-23T03:36:07.963Z,98397
2018-04-23T03:38:40.484Z,98415
2018-04-23T03:41:12.624Z,98439
2018-04-23T03:43:45.365Z,98428
2018-04-23T03:46:17.544Z,98429
2018-04-23T03:48:49.864Z,98435
2018-04-23T03:51:22.765Z,98426
2018-04-23T03:53:55.083Z,98440
2018-04-23T03:56:27.585Z,98432
2018-04-23T03:58:59.884Z,98441
2018-04-23T04:01:32.065Z,98431
2018-04-23T04:04:04.364Z,98428
2018-04-23T04:06:36.605Z,98435
2018-04-23T04:09:09.025Z,98435
2018-04-23T04:11:41.285Z,98436
2018-04-23T04:14:31.544Z,98444
2018-04-23T04:17:03.843Z,98441
2018-04-23T04:19:35.951Z,98449
2018-04-23T04:22:08.125Z,98440
2018-04-23T04:24:40.328Z,98444
2018-04-23T04:27:12.568Z,98450
2018-04-23T04:29:45.685Z,98442
2018-04-23T04:32:17.865Z,98443
2018-04-23T04:34:49.974Z,98440
2018-04-23T04:37:22.504Z,98445
2018-04-23T04:39:55.766Z,98447
2018-04-23T04:42:28.044Z,98457
2018-04-23T04:45:01.124Z,98458
2018-04-23T04:47:33.425Z,98458
2018-04-23T04:50:05.665Z,98459
2018-04-23T04:52:38.025Z,98462
2018-04-23T04:55:10.286Z,98460
2018-04-23T04:57:42.524Z,98455
2018-04-23T05:00:14.948Z,98460
2018-04-23T05:02:47.205Z,98467
2018-04-23T05:05:20.166Z,98463
2018-04-23T05:07:52.406Z,98459
2018-04-23T05:10:24.645Z,98464
2018-04-23T05:12:57.285Z,98471
2018-04-23T05:15:29.425Z,98471
2018-04-23T05:18:02.025Z,98474
2018-04-23T05:20:34.204Z,98474
2018-04-23T05:23:06.704Z,98478
2018-04-23T05:25:38.944Z,98472
2018-04-23T05:28:11.123Z,98477
2018-04-23T05:30:43.406Z,98476
2018-04-23T05:33:15.584Z,98472
2018-04-23T05:35:48.306Z,98480
2018-04-23T05:38:21.224Z,98474
2018-04-23T05:40:53.861Z,98479
2018-04-23T05:43:26.304Z,98477
2018-04-23T05:45:58.527Z,98478
2018-04-23T05:48:31.005Z,98474
2018-04-23T05:51:03.164Z,98466
2018-04-23T05:53:35.404Z,98477
2018-04-23T05:56:07.712Z,98475
2018-04-23T05:58:39.983Z,98484
2018-04-23T06:01:12.443Z,98481
2018-04-23T06:03:44.623Z,98490
2018-04-23T06:06:17.143Z,98487
2018-04-23T06:08:50.383Z,98490
2018-04-23T06:11:22.957Z,98488
2018-04-23T06:13:55.123Z,98492
2018-04-23T06:16:27.344Z,98491
2018-04-23T06:18:59.623Z,98498
2018-04-23T06:21:31.782Z,98497
2018-04-23T06:24:04.064Z,98494
2018-04-23T06:26:36.241Z,98498
2018-04-23T06:29:08.421Z,98499
2018-04-23T06:31:41.481Z,98496
2018-04-23T06:34:15.828Z,98507
2018-04-23T06:36:48.022Z,98513
2018-04-23T06:39:20.342Z,98520
2018-04-23T06:41:52.584Z,98523
2018-04-23T06:44:24.811Z,98517
2018-04-23T06:46:56.982Z,98525
2018-04-23T06:49:29.462Z,98524
2018-04-23T06:52:01.641Z,98528
2018-04-23T06:54:34.302Z,98529
2018-04-23T06:57:06.480Z,98526
2018-04-23T06:59:38.763Z,98525
2018-04-23T07:02:11.723Z,98527
2018-04-23T07:04:44.325Z,98527
2018-04-23T07:07:16.558Z,98530
2018-04-23T07:09:48.884Z,98534
2018-04-23T07:12:21.043Z,98529
2018-04-23T07:14:53.283Z,98539
2018-04-23T07:17:25.563Z,98534
2018-04-23T07:19:57.823Z,98528
2018-04-23T07:22:30.144Z,98515
2018-04-23T07:25:02.664Z,98520
2018-04-23T07:27:34.924Z,98514
2018-04-23T07:30:07.622Z,98525
2018-04-23T07:32:40.602Z,98513
2018-04-23T07:35:12.805Z,98519
2018-04-23T07:37:45.083Z,98519
2018-04-23T07:40:17.244Z,98512
2018-04-23T07:42:49.345Z,98507
2018-04-23T07:45:21.485Z,98516
2018-04-23T07:47:54.135Z,98515
2018-04-23T07:50:26.404Z,98523
2018-04-23T07:52:58.505Z,98512
2018-04-23T07:55:30.804Z,98518
2018-04-23T07:58:03.085Z,98527
2018-04-23T08:00:36.005Z,98522
2018-04-23T08:03:08.235Z,98530
2018-04-23T08:05:41.228Z,98527
2018-04-23T08:08:13.507Z,98529
2018-04-23T08:10:45.743Z,98542
2018-04-23T08:13:13.005Z,98542
2018-04-23T08:15:45.243Z,98535
2018-04-23T08:18:17.465Z,98542
2018-04-23T08:20:49.762Z,98536
2018-04-23T08:23:22.147Z,98526
2018-04-23T08:25:54.343Z,98535
2018-04-23T08:28:26.543Z,98536
2018-04-23T08:30:58.743Z,98529
2018-04-23T08:33:30.982Z,98537
2018-04-23T08:36:03.082Z,98537
2018-04-23T08:38:35.286Z,98545
2018-04-23T08:41:07.447Z,98550
2018-04-23T08:43:39.704Z,98542
2018-04-23T08:46:11.864Z,98529
2018-04-23T08:48:44.124Z,98538
2018-04-23T08:51:16.285Z,98531
2018-04-23T08:53:48.524Z,98528
2018-04-23T08:56:21.284Z,98531
2018-04-23T08:58:53.525Z,98536
2018-04-23T09:01:25.689Z,98536
2018-04-23T09:03:58.625Z,98529
2018-04-23T09:06:30.786Z,98528
2018-04-23T09:09:03.966Z,98525
2018-04-23T09:11:37.288Z,98521
2018-04-23T09:14:09.865Z,98522
2018-04-23T09:16:42.001Z,98522
2018-04-23T09:19:14.208Z,98518
2018-04-23T09:21:46.504Z,98517
2018-04-23T09:24:18.825Z,98518
2018-04-23T09:26:51.345Z,98511
2018-04-23T09:29:23.627Z,98512
2018-04-23T09:31:55.824Z,98503
2018-04-23T09:34:28.091Z,98502
2018-04-23T09:37:01.024Z,98496
2018-04-23T09:39:33.208Z,98495
2018-04-23T09:42:05.424Z,98495
2018-04-23T09:44:38.172Z,98492
2018-04-23T09:47:10.385Z,98492
2018-04-23T09:49:42.646Z,98489
2018-04-23T09:52:14.845Z,98485
2018-04-23T09:54:47.064Z,98487
2018-04-23T09:57:20.045Z,98487
2018-04-23T09:59:52.965Z,98483
2018-04-23T10:02:25.245Z,98480
2018-04-23T10:04:57.404Z,98482
2018-04-23T10:07:29.663Z,98479
2018-04-23T10:10:02.386Z,98482
2018-04-23T10:12:34.588Z,98476
2018-04-23T10:15:06.784Z,98478
2018-04-23T10:17:38.985Z,98476
2018-04-23T10:20:11.265Z,98469
2018-04-23T10:22:43.545Z,98472
2018-04-23T10:25:17.345Z,98471
2018-04-23T10:27:50.306Z,98465
2018-04-23T10:30:22.545Z,98466
2018-04-23T10:32:54.963Z,98470
2018-04-23T10:35:27.242Z,98465
2018-04-23T10:38:00.288Z,98460
2018-04-23T10:40:32.523Z,98461
2018-04-23T10:43:05.322Z,98463
2018-04-23T10:45:37.566Z,98454
2018-04-23T10:48:09.866Z,98452
2018-04-23T10:50:42.163Z,98454
2018-04-23T10:53:14.402Z,98447
2018-04-23T10:55:46.515Z,98448
2018-04-23T10:58:18.756Z,98447
2018-04-23T11:00:51.014Z,98443
2018-04-23T11:03:23.515Z,98440
2018-04-23T11:05:55.635Z,98446
2018-04-23T11:08:27.934Z,98444
2018-04-23T11:11:00.255Z,98432
2018-04-23T11:13:32.556Z,98440
2018-04-23T11:16:05.074Z,98428
2018-04-23T11:18:37.314Z,98433
2018-04-23T11:21:09.835Z,98438
2018-04-23T11:23:42.134Z,98431
2018-04-23T11:26:14.374Z,98426
2018-04-23T11:28:46.554Z,98422
2018-04-23T11:31:18.774Z,98424
2018-04-23T11:33:51.054Z,98426
2018-04-23T11:36:23.274Z,98423
2018-04-23T11:38:55.555Z,98422
2018-04-23T11:41:28.180Z,98416
2018-04-23T11:44:00.454Z,98414
2018-04-23T11:46:32.698Z,98412
2018-04-23T11:49:04.874Z,98402
2018-04-23T11:51:37.153Z,98403
2018-04-23T11:54:09.414Z,98392
2018-04-23T11:56:41.754Z,98396
2018-04-23T11:59:14.514Z,98399
2018-04-23T12:01:46.774Z,98402
2018-04-23T12:04:18.994Z,98393
2018-04-23T12:06:51.442Z,98392
2018-04-23T12:09:24.515Z,98400
2018-04-23T12:11:57.014Z,98387
2018-04-23T12:14:29.214Z,98380
2018-04-23T12:17:01.416Z,98386
2018-04-23T12:19:33.676Z,98384
2018-04-23T12:22:05.800Z,98378
2018-04-23T12:24:38.854Z,98373
2018-04-23T12:27:11.074Z,98373
2018-04-23T12:29:43.563Z,98360
2018-04-23T12:32:15.814Z,98358
2018-04-23T12:34:48.054Z,98354
2018-04-23T12:37:20.234Z,98338
2018-04-23T12:39:52.554Z,98352
2018-04-23T12:42:24.777Z,98336
2018-04-23T12:44:57.055Z,98338
2018-04-23T12:47:29.255Z,98330
2018-04-23T12:50:01.555Z,98322
2018-04-23T12:52:33.774Z,98322
2018-04-23T12:55:06.175Z,98309
2018-04-23T12:57:38.439Z,98305
2018-04-23T13:00:11.775Z,98305
2018-04-23T13:02:44.075Z,98303
2018-04-23T13:05:16.355Z,98302
2018-04-23T13:07:48.817Z,98293
2018-04-23T13:10:21.114Z,98297
2018-04-23T13:12:53.754Z,98281
2018-04-23T13:15:25.957Z,98291
2018-04-23T13:17:58.155Z,98288
2018-04-23T13:20:30.754Z,98290
2018-04-23T13:23:03.035Z,98284
2018-04-23T13:25:35.334Z,98296
2018-04-23T13:28:07.414Z,98284
2018-04-23T13:30:39.615Z,98288
2018-04-23T13:33:11.861Z,98282
2018-04-23T13:35:44.094Z,98273
2018-04-23T13:38:16.316Z,98281
2018-04-23T13:40:48.535Z,98290
2018-04-23T13:43:20.775Z,98283
2018-04-23T13:45:53.738Z,98270
2018-04-23T13:48:25.934Z,98265
2018-04-23T13:50:58.915Z,98260
2018-04-23T13:53:31.174Z,98268
2018-04-23T13:56:03.414Z,98266
2018-04-23T13:58:36.453Z,98264
2018-04-23T14:01:08.674Z,98267
2018-04-23T14:03:41.014Z,98266
2018-04-23T14:06:13.214Z,98252
2018-04-23T14:08:45.954Z,98257
2018-04-23T14:11:13.094Z,98261
2018-04-23T14:13:45.395Z,98258
2018-04-23T14:16:17.573Z,98247
2018-04-23T14:18:49.900Z,98251
2018-04-23T14:21:22.535Z,98261
2018-04-23T14:23:54.803Z,98248
2018-04-23T14:26:22.079Z,98256
2018-04-23T14:29:05.821Z,98256
2018-04-23T14:31:37.954Z,98251
2018-04-23T14:34:10.094Z,98257
2018-04-23T14:36:42.328Z,98257
2018-04-23T14:39:14.588Z,98260
2018-04-23T14:41:46.989Z,98249
2018-04-23T14:44:20.066Z,98252
2018-04-23T14:46:52.452Z,98259
2018-04-23T14:49:25.029Z,98249
2018-04-23T14:51:57.927Z,98247
2018-04-23T14:54:30.187Z,98248
2018-04-23T14:57:03.136Z,98250
2018-04-23T14:59:35.368Z,98252
2018-04-23T15:02:07.944Z,98265
2018-04-23T15:04:40.143Z,98258
2018-04-23T15:07:12.543Z,98257
2018-04-23T15:09:44.824Z,98247
2018-04-23T15:12:17.465Z,98247
2018-04-23T15:14:50.359Z,98253
2018-04-23T15:17:22.587Z,98246
2018-04-23T15:19:54.812Z,98248
2018-04-23T15:22:27.872Z,98249
2018-04-23T15:25:00.132Z,98245
2018-04-23T15:27:32.352Z,98250
2018-04-23T15:30:04.552Z,98256
2018-04-23T15:32:36.692Z,98262
2018-04-23T15:35:08.854Z,98253
2018-04-23T15:37:41.152Z,98251
2018-04-23T15:40:13.472Z,98260
2018-04-23T15:42:45.673Z,98257
2018-04-23T15:45:17.952Z,98259
2018-04-23T15:47:50.132Z,98248
2018-04-23T15:50:22.432Z,98254
2018-04-23T15:52:54.592Z,98252
2018-04-23T15:55:26.872Z,98249
2018-04-23T15:57:59.336Z,98250
2018-04-23T16:00:31.636Z,98252
2018-04-23T16:03:03.872Z,98253
2018-04-23T16:05:36.073Z,98242
2018-04-23T16:08:08.292Z,98240
2018-04-23T16:10:40.533Z,98231
2018-04-23T16:13:12.712Z,98228
2018-04-23T16:15:44.992Z,98213
2018-04-23T16:18:17.125Z,98221
2018-04-23T16:20:49.213Z,98213
2018-04-23T16:23:21.492Z,98199
2018-04-23T16:25:53.692Z,98202
2018-04-23T16:28:25.974Z,98214
2018-04-23T16:30:58.433Z,98208
2018-04-23T16:33:30.653Z,98210
2018-04-23T16:36:02.873Z,98216
2018-04-23T16:38:35.132Z,98219
2018-04-23T16:41:07.332Z,98219
2018-04-23T16:43:40.312Z,98218
2018-04-23T16:46:12.512Z,98222
2018-04-23T16:48:58.812Z,98223
2018-04-23T16:51:30.952Z,98226
2018-04-23T16:54:03.273Z,98223
2018-04-23T16:56:35.495Z,98232
2018-04-23T16:59:07.728Z,98227
2018-04-23T17:01:39.818Z,98234
2018-04-23T17:04:12.694Z,98238
2018-04-23T17:06:45.633Z,98230
2018-04-23T17:09:17.918Z,98230
2018-04-23T17:11:50.173Z,98229
2018-04-23T17:14:22.313Z,98237
2018-04-23T17:16:54.533Z,98240
2018-04-23T17:19:26.754Z,98227
2018-04-23T17:21:59.102Z,98236
2018-04-23T17:24:32.136Z,98235
2018-04-23T17:27:04.393Z,98242
2018-04-23T17:29:37.415Z,98247
2018-04-23T17:32:09.853Z,98248
2018-04-23T17:34:42.093Z,98246
2018-04-23T17:37:14.353Z,98253
2018-04-23T17:39:46.613Z,98254
2018-04-23T17:42:19.522Z,98265
2018-04-23T17:44:51.816Z,98266
2018-04-23T17:47:23.980Z,98279
2018-04-23T17:49:56.254Z,98292
2018-04-23T17:52:28.454Z,98293
2018-04-23T17:55:00.694Z,98298
2018-04-23T17:57:33.656Z,98299
2018-04-23T18:00:05.975Z,98307
2018-04-23T18:02:38.095Z,98311
2018-04-23T18:05:10.507Z,98317
2018-04-23T18:07:42.725Z,98330
2018-04-23T18:10:15.312Z,98334
2018-04-23T18:12:47.571Z,98346
2018-04-23T18:15:28.314Z,98348
2018-04-23T18:18:02.297Z,98364
2018-04-23T18:20:34.689Z,98363
2018-04-23T18:23:06.880Z,98368
2018-04-23T18:25:39.168Z,98377
2018-04-23T18:28:12.088Z,98383
2018-04-23T18:30:44.469Z,98380
2018-04-23T18:33:17.069Z,98391
2018-04-23T18:35:49.329Z,98394
2018-04-23T18:38:21.568Z,98395
2018-04-23T18:40:53.770Z,98401
2018-04-23T18:43:25.948Z,98407
2018-04-23T18:45:58.108Z,98401
2018-04-23T18:48:30.308Z,98403
2018-04-23T18:51:02.569Z,98408
2018-04-23T18:53:34.809Z,98405
2018-04-23T18:56:07.122Z,98415
2018-04-23T18:58:39.928Z,98419
2018-04-23T19:01:12.393Z,98415
2018-04-23T19:03:44.772Z,98414
2018-04-23T19:06:17.442Z,98424
2018-04-23T19:08:49.731Z,98425
2018-04-23T19:11:21.990Z,98429
2018-04-23T19:13:54.329Z,98437
2018-04-23T19:16:26.989Z,98439
2018-04-23T19:18:59.311Z,98443
2018-04-23T19:21:31.771Z,98434
2018-04-23T19:24:04.170Z,98434
2018-04-23T19:26:36.430Z,98437
2018-04-23T19:31:41.595Z,98428
2018-04-23T19:34:14.604Z,98430
2018-04-23T19:36:46.929Z,98440
2018-04-23T19:39:19.209Z,98434
2018-04-23T19:41:51.613Z,98442
2018-04-23T19:44:23.872Z,98448
2018-04-23T19:46:56.616Z,98441
2018-04-23T19:49:29.550Z,98459
2018-04-23T19:52:01.849Z,98466
2018-04-23T19:54:34.963Z,98486
2018-04-23T19:57:07.832Z,98500
2018-04-23T19:59:40.282Z,98495
2018-04-23T20:02:12.623Z,98488
2018-04-23T20:04:44.842Z,98490
2018-04-23T20:07:17.016Z,98502
2018-04-23T20:09:50.063Z,98514
2018-04-23T20:12:22.403Z,98525
2018-04-23T20:14:54.897Z,98521
2018-04-23T20:17:27.023Z,98537
2018-04-23T20:19:59.982Z,98527
2018-04-23T20:22:32.183Z,98536
2018-04-23T20:25:04.561Z,98542
2018-04-23T20:27:36.822Z,98537
2018-04-23T20:30:09.710Z,98546
2018-04-23T20:32:41.923Z,98556
2018-04-23T20:35:14.269Z,98567
2018-04-23T20:37:46.492Z,98577
2018-04-23T20:40:18.802Z,98581
2018-04-23T20:42:51.102Z,98582
2018-04-23T20:45:23.322Z,98581
2018-04-23T20:47:55.597Z,98589
2018-04-23T20:50:27.903Z,98593
2018-04-23T20:53:00.843Z,98595
2018-04-23T20:55:33.085Z,98602
2018-04-23T20:58:05.322Z,98594
2018-04-23T21:00:37.462Z,98600
2018-04-23T21:03:09.782Z,98610
2018-04-23T21:05:42.094Z,98611
2018-04-23T21:08:15.302Z,98613
2018-04-23T21:10:47.583Z,98620
2018-04-23T21:13:19.707Z,98622
2018-04-23T21:15:51.963Z,98633
2018-04-23T21:18:24.103Z,98630
2018-04-23T21:20:56.424Z,98633
2018-04-23T21:23:29.064Z,98645
2018-04-23T21:26:01.478Z,98642
2018-04-23T21:28:33.723Z,98645
2018-04-23T21:31:05.983Z,98645
2018-04-23T21:33:38.224Z,98653
2018-04-23T21:36:10.503Z,98645
2018-04-23T21:38:42.743Z,98651
2018-04-23T21:41:15.383Z,98652
2018-04-23T21:43:47.563Z,98657
2018-04-23T21:46:19.694Z,98659
2018-04-23T21:48:51.924Z,98660
2018-04-23T21:51:24.143Z,98665
2018-04-23T21:53:56.824Z,98663
2018-04-23T21:56:29.091Z,98666
2018-04-23T21:59:01.504Z,98669
2018-04-23T22:01:33.764Z,98671
2018-04-23T22:04:06.109Z,98667
2018-04-23T22:06:38.644Z,98671
2018-04-23T22:09:10.826Z,98674
2018-04-23T22:11:43.165Z,98675
2018-04-23T22:14:16.124Z,98674
2018-04-23T22:16:48.693Z,98670
2018-04-23T22:19:20.790Z,98676
2018-04-23T22:21:53.004Z,98678
2018-04-23T22:24:25.234Z,98681
2018-04-23T22:26:57.506Z,98681
2018-04-23T22:29:29.683Z,98683
2018-04-23T22:32:01.929Z,98691
2018-04-23T22:34:34.164Z,98693
2018-04-23T22:37:06.764Z,98695
2018-04-23T22:39:38.926Z,98692
2018-04-23T22:42:11.092Z,98698
2018-04-23T22:44:43.664Z,98699
2018-04-23T22:47:15.924Z,98694
2018-04-23T22:49:48.684Z,98700
2018-04-23T22:52:20.824Z,98706
2018-04-23T22:54:52.984Z,98699
2018-04-23T22:57:25.245Z,98691
2018-04-23T22:59:57.495Z,98697
2018-04-23T23:02:29.755Z,98698
2018-04-23T23:05:02.097Z,98701
2018-04-23T23:07:34.273Z,98700
2018-04-23T23:10:06.653Z,98694
2018-04-23T23:12:38.853Z,98696
2018-04-23T23:15:11.812Z,98684
2018-04-23T23:17:44.157Z,98690
2018-04-23T23:20:16.532Z,98683
2018-04-23T23:22:48.728Z,98683
2018-04-23T23:25:22.213Z,98678
2018-04-23T23:27:55.614Z,98672
2018-04-23T23:30:41.373Z,98672
2018-04-23T23:33:14.014Z,98675
2018-04-23T23:35:46.236Z,98676
2018-04-23T23:38:19.193Z,98676
2018-04-23T23:40:51.394Z,98677
2018-04-23T23:43:23.573Z,98683
2018-04-23T23:45:56.373Z,98681
2018-04-23T23:48:28.473Z,98686
2018-04-23T23:51:00.713Z,98684
2018-04-23T23:53:32.973Z,98686
2018-04-23T23:56:05.176Z,98681
2018-04-23T23:58:37.374Z,98676
